sensor_id;sensor_type;location;lat;lon;timestamp;P1;durP1;ratioP1;P2;durP2;ratioP2
12412;SDS011;13877;18.896;-99.222;2023-02-28T00:01:29;8.65;;;3.10;;
12412;SDS011;13877;18.896;-99.222;2023-02-28T00:03:57;6.53;;;3.03;;
12412;SDS011;13877;18.896;-99.222;2023-02-28T00:06:24;11.30;;;2.92;;
12412;SDS011;13877;18.896;-99.222;2023-02-28T00:08:52;10.55;;;2.70;;
12412;SDS011;13877;18.896;-99.222;2023-02-28T00:11:19;4.07;;;2.80;;
12412;SDS011;13877;18.896;-99.222;2023-02-28T00:13:46;5.50;;;2.90;;
12412;SDS011;13877;18.896;-99.222;2023-02-28T00:16:16;7.82;;;2.63;;
12412;SDS011;13877;18.896;-99.222;2023-02-28T00:18:46;12.75;;;2.88;;
12412;SDS011;13877;18.896;-99.222;2023-02-28T00:21:13;6.80;;;2.83;;
12412;SDS011;13877;18.896;-99.222;2023-02-28T00:23:41;21.80;;;3.97;;
12412;SDS011;13877;18.896;-99.222;2023-02-28T00:26:08;19.98;;;3.00;;
12412;SDS011;13877;18.896;-99.222;2023-02-28T00:28:36;13.75;;;3.00;;
12412;SDS011;13877;18.896;-99.222;2023-02-28T00:31:03;16.27;;;3.30;;
12412;SDS011;13877;18.896;-99.222;2023-02-28T00:33:30;13.30;;;3.00;;
12412;SDS011;13877;18.896;-99.222;2023-02-28T00:36:15;15.05;;;3.47;;
12412;SDS011;13877;18.896;-99.222;2023-02-28T00:38:43;20.77;;;3.75;;
12412;SDS011;13877;18.896;-99.222;2023-02-28T00:41:09;11.13;;;3.28;;
12412;SDS011;13877;18.896;-99.222;2023-02-28T00:43:38;13.27;;;4.03;;
12412;SDS011;13877;18.896;-99.222;2023-02-28T00:46:05;8.35;;;3.03;;
12412;SDS011;13877;18.896;-99.222;2023-02-28T00:48:33;8.85;;;3.45;;
12412;SDS011;13877;18.896;-99.222;2023-02-28T00:51:00;11.23;;;3.88;;
12412;SDS011;13877;18.896;-99.222;2023-02-28T00:53:28;15.07;;;4.38;;
12412;SDS011;13877;18.896;-99.222;2023-02-28T00:55:56;18.33;;;4.55;;
12412;SDS011;13877;18.896;-99.222;2023-02-28T00:58:25;11.13;;;4.00;;
12412;SDS011;13877;18.896;-99.222;2023-02-28T01:00:53;15.63;;;4.45;;
12412;SDS011;13877;18.896;-99.222;2023-02-28T01:03:21;12.27;;;4.28;;
12412;SDS011;13877;18.896;-99.222;2023-02-28T01:05:48;10.20;;;4.57;;
12412;SDS011;13877;18.896;-99.222;2023-02-28T01:08:16;13.20;;;5.18;;
12412;SDS011;13877;18.896;-99.222;2023-02-28T01:10:43;15.63;;;4.75;;
12412;SDS011;13877;18.896;-99.222;2023-02-28T01:13:10;19.45;;;5.13;;
12412;SDS011;13877;18.896;-99.222;2023-02-28T01:15:39;14.52;;;5.38;;
12412;SDS011;13877;18.896;-99.222;2023-02-28T01:18:11;14.85;;;5.07;;
12412;SDS011;13877;18.896;-99.222;2023-02-28T01:20:38;18.10;;;5.60;;
12412;SDS011;13877;18.896;-99.222;2023-02-28T01:23:05;15.70;;;5.30;;
12412;SDS011;13877;18.896;-99.222;2023-02-28T01:25:36;13.95;;;5.72;;
12412;SDS011;13877;18.896;-99.222;2023-02-28T01:28:04;12.75;;;4.85;;
12412;SDS011;13877;18.896;-99.222;2023-02-28T01:30:31;20.92;;;6.32;;
12412;SDS011;13877;18.896;-99.222;2023-02-28T01:32:59;15.95;;;5.10;;
12412;SDS011;13877;18.896;-99.222;2023-02-28T01:35:26;28.63;;;6.55;;
12412;SDS011;13877;18.896;-99.222;2023-02-28T01:37:53;21.23;;;5.63;;
12412;SDS011;13877;18.896;-99.222;2023-02-28T01:40:20;19.23;;;5.13;;
12412;SDS011;13877;18.896;-99.222;2023-02-28T01:42:48;15.88;;;4.80;;
12412;SDS011;13877;18.896;-99.222;2023-02-28T01:45:30;17.42;;;5.15;;
12412;SDS011;13877;18.896;-99.222;2023-02-28T01:48:03;11.73;;;5.03;;
12412;SDS011;13877;18.896;-99.222;2023-02-28T01:50:34;24.25;;;5.63;;
12412;SDS011;13877;18.896;-99.222;2023-02-28T01:55:34;16.17;;;5.10;;
12412;SDS011;13877;18.896;-99.222;2023-02-28T01:58:02;20.00;;;5.00;;
12412;SDS011;13877;18.896;-99.222;2023-02-28T02:00:32;30.75;;;5.35;;
12412;SDS011;13877;18.896;-99.222;2023-02-28T02:03:01;17.70;;;5.00;;
12412;SDS011;13877;18.896;-99.222;2023-02-28T02:05:35;25.52;;;5.85;;
12412;SDS011;13877;18.896;-99.222;2023-02-28T02:08:06;12.95;;;5.10;;
12412;SDS011;13877;18.896;-99.222;2023-02-28T02:13:38;23.08;;;5.93;;
12412;SDS011;13877;18.896;-99.222;2023-02-28T02:29:56;15.07;;;5.65;;
12412;SDS011;13877;18.896;-99.222;2023-02-28T02:38:26;27.98;;;7.05;;
12412;SDS011;13877;18.896;-99.222;2023-02-28T02:48:45;23.90;;;7.55;;
12412;SDS011;13877;18.896;-99.222;2023-02-28T02:51:16;19.38;;;7.45;;
12412;SDS011;13877;18.896;-99.222;2023-02-28T02:53:51;17.40;;;6.88;;
12412;SDS011;13877;18.896;-99.222;2023-02-28T02:56:23;20.02;;;6.75;;
12412;SDS011;13877;18.896;-99.222;2023-02-28T02:58:53;15.05;;;6.40;;
12412;SDS011;13877;18.896;-99.222;2023-02-28T03:01:23;21.63;;;7.28;;
12412;SDS011;13877;18.896;-99.222;2023-02-28T03:04:02;35.08;;;7.75;;
12412;SDS011;13877;18.896;-99.222;2023-02-28T03:06:31;23.73;;;7.72;;
12412;SDS011;13877;18.896;-99.222;2023-02-28T03:08:59;27.73;;;7.18;;
12412;SDS011;13877;18.896;-99.222;2023-02-28T03:11:27;23.10;;;7.18;;
12412;SDS011;13877;18.896;-99.222;2023-02-28T03:22:44;29.92;;;5.88;;
12412;SDS011;13877;18.896;-99.222;2023-02-28T03:30:57;21.85;;;6.45;;
12412;SDS011;13877;18.896;-99.222;2023-02-28T03:33:34;26.98;;;6.90;;
12412;SDS011;13877;18.896;-99.222;2023-02-28T03:36:10;26.27;;;6.88;;
12412;SDS011;13877;18.896;-99.222;2023-02-28T03:38:46;23.55;;;6.53;;
12412;SDS011;13877;18.896;-99.222;2023-02-28T03:41:22;25.25;;;6.75;;
12412;SDS011;13877;18.896;-99.222;2023-02-28T03:43:58;23.63;;;6.75;;
12412;SDS011;13877;18.896;-99.222;2023-02-28T03:46:30;26.75;;;6.50;;
12412;SDS011;13877;18.896;-99.222;2023-02-28T03:49:09;30.65;;;6.47;;
12412;SDS011;13877;18.896;-99.222;2023-02-28T03:51:44;20.27;;;6.75;;
12412;SDS011;13877;18.896;-99.222;2023-02-28T03:57:26;22.65;;;6.75;;
12412;SDS011;13877;18.896;-99.222;2023-02-28T04:00:30;33.78;;;6.93;;
12412;SDS011;13877;18.896;-99.222;2023-02-28T04:03:03;25.67;;;6.32;;
12412;SDS011;13877;18.896;-99.222;2023-02-28T04:05:31;17.35;;;6.22;;
12412;SDS011;13877;18.896;-99.222;2023-02-28T04:08:08;20.95;;;6.07;;
12412;SDS011;13877;18.896;-99.222;2023-02-28T04:10:36;23.23;;;6.22;;
12412;SDS011;13877;18.896;-99.222;2023-02-28T04:13:03;29.10;;;6.68;;
12412;SDS011;13877;18.896;-99.222;2023-02-28T04:15:30;22.75;;;6.40;;
12412;SDS011;13877;18.896;-99.222;2023-02-28T04:17:57;35.75;;;6.85;;
12412;SDS011;13877;18.896;-99.222;2023-02-28T04:20:24;31.40;;;6.88;;
12412;SDS011;13877;18.896;-99.222;2023-02-28T04:22:51;18.17;;;6.03;;
12412;SDS011;13877;18.896;-99.222;2023-02-28T04:25:18;24.15;;;6.72;;
12412;SDS011;13877;18.896;-99.222;2023-02-28T04:27:44;15.73;;;5.57;;
12412;SDS011;13877;18.896;-99.222;2023-02-28T04:30:12;19.20;;;6.25;;
12412;SDS011;13877;18.896;-99.222;2023-02-28T04:32:39;19.83;;;6.05;;
12412;SDS011;13877;18.896;-99.222;2023-02-28T04:35:06;35.42;;;6.40;;
12412;SDS011;13877;18.896;-99.222;2023-02-28T04:37:33;17.17;;;5.97;;
12412;SDS011;13877;18.896;-99.222;2023-02-28T04:40:02;37.92;;;6.72;;
12412;SDS011;13877;18.896;-99.222;2023-02-28T04:42:30;24.20;;;5.55;;
12412;SDS011;13877;18.896;-99.222;2023-02-28T04:45:02;24.35;;;6.82;;
12412;SDS011;13877;18.896;-99.222;2023-02-28T04:47:29;16.45;;;6.25;;
12412;SDS011;13877;18.896;-99.222;2023-02-28T04:49:56;31.30;;;6.13;;
12412;SDS011;13877;18.896;-99.222;2023-02-28T04:52:23;25.38;;;5.88;;
12412;SDS011;13877;18.896;-99.222;2023-02-28T04:54:50;32.33;;;6.20;;
12412;SDS011;13877;18.896;-99.222;2023-02-28T04:57:17;23.60;;;6.32;;
12412;SDS011;13877;18.896;-99.222;2023-02-28T04:59:45;29.08;;;6.40;;
12412;SDS011;13877;18.896;-99.222;2023-02-28T05:02:11;23.13;;;6.15;;
12412;SDS011;13877;18.896;-99.222;2023-02-28T05:04:39;20.45;;;6.35;;
12412;SDS011;13877;18.896;-99.222;2023-02-28T05:07:05;17.42;;;6.05;;
12412;SDS011;13877;18.896;-99.222;2023-02-28T05:09:32;19.35;;;5.65;;
12412;SDS011;13877;18.896;-99.222;2023-02-28T05:12:00;21.27;;;5.93;;
12412;SDS011;13877;18.896;-99.222;2023-02-28T05:14:27;22.45;;;5.70;;
12412;SDS011;13877;18.896;-99.222;2023-02-28T05:16:54;19.15;;;5.72;;
12412;SDS011;13877;18.896;-99.222;2023-02-28T05:19:21;27.65;;;5.80;;
12412;SDS011;13877;18.896;-99.222;2023-02-28T05:21:52;22.95;;;6.00;;
12412;SDS011;13877;18.896;-99.222;2023-02-28T05:24:21;19.10;;;5.88;;
12412;SDS011;13877;18.896;-99.222;2023-02-28T05:26:49;28.10;;;6.20;;
12412;SDS011;13877;18.896;-99.222;2023-02-28T05:29:18;26.85;;;6.60;;
12412;SDS011;13877;18.896;-99.222;2023-02-28T05:31:44;17.85;;;5.97;;
12412;SDS011;13877;18.896;-99.222;2023-02-28T05:34:12;18.90;;;6.40;;
12412;SDS011;13877;18.896;-99.222;2023-02-28T05:36:41;22.23;;;6.43;;
12412;SDS011;13877;18.896;-99.222;2023-02-28T05:39:08;23.35;;;6.97;;
12412;SDS011;13877;18.896;-99.222;2023-02-28T05:41:40;15.63;;;6.57;;
12412;SDS011;13877;18.896;-99.222;2023-02-28T05:44:07;12.77;;;5.53;;
12412;SDS011;13877;18.896;-99.222;2023-02-28T05:46:34;13.48;;;6.00;;
12412;SDS011;13877;18.896;-99.222;2023-02-28T05:49:01;24.58;;;5.72;;
12412;SDS011;13877;18.896;-99.222;2023-02-28T05:51:29;22.23;;;6.10;;
12412;SDS011;13877;18.896;-99.222;2023-02-28T05:53:58;17.67;;;5.88;;
12412;SDS011;13877;18.896;-99.222;2023-02-28T05:56:27;24.42;;;5.90;;
12412;SDS011;13877;18.896;-99.222;2023-02-28T05:58:54;17.17;;;5.82;;
12412;SDS011;13877;18.896;-99.222;2023-02-28T06:03:51;18.50;;;6.28;;
12412;SDS011;13877;18.896;-99.222;2023-02-28T06:06:18;18.88;;;6.40;;
12412;SDS011;13877;18.896;-99.222;2023-02-28T06:08:45;18.50;;;6.22;;
12412;SDS011;13877;18.896;-99.222;2023-02-28T06:11:12;32.63;;;7.03;;
12412;SDS011;13877;18.896;-99.222;2023-02-28T06:13:39;22.48;;;5.88;;
12412;SDS011;13877;18.896;-99.222;2023-02-28T06:16:08;20.83;;;6.85;;
12412;SDS011;13877;18.896;-99.222;2023-02-28T06:18:37;24.50;;;6.57;;
12412;SDS011;13877;18.896;-99.222;2023-02-28T06:21:04;26.30;;;7.10;;
12412;SDS011;13877;18.896;-99.222;2023-02-28T06:23:31;29.27;;;6.38;;
12412;SDS011;13877;18.896;-99.222;2023-02-28T06:25:58;25.02;;;6.18;;
12412;SDS011;13877;18.896;-99.222;2023-02-28T06:28:25;34.95;;;7.03;;
12412;SDS011;13877;18.896;-99.222;2023-02-28T06:30:52;24.35;;;6.05;;
12412;SDS011;13877;18.896;-99.222;2023-02-28T06:33:19;18.02;;;5.90;;
12412;SDS011;13877;18.896;-99.222;2023-02-28T06:35:47;30.10;;;6.55;;
12412;SDS011;13877;18.896;-99.222;2023-02-28T06:38:16;25.77;;;6.18;;
12412;SDS011;13877;18.896;-99.222;2023-02-28T06:40:44;33.80;;;6.97;;
12412;SDS011;13877;18.896;-99.222;2023-02-28T06:43:18;40.22;;;5.93;;
12412;SDS011;13877;18.896;-99.222;2023-02-28T06:45:45;25.42;;;6.22;;
12412;SDS011;13877;18.896;-99.222;2023-02-28T06:48:12;24.10;;;6.07;;
12412;SDS011;13877;18.896;-99.222;2023-02-28T06:50:40;26.83;;;7.30;;
12412;SDS011;13877;18.896;-99.222;2023-02-28T06:53:07;34.08;;;7.57;;
12412;SDS011;13877;18.896;-99.222;2023-02-28T06:55:34;18.27;;;6.70;;
12412;SDS011;13877;18.896;-99.222;2023-02-28T06:58:05;35.78;;;7.25;;
12412;SDS011;13877;18.896;-99.222;2023-02-28T07:00:41;18.52;;;6.28;;
12412;SDS011;13877;18.896;-99.222;2023-02-28T07:03:09;20.35;;;6.85;;
12412;SDS011;13877;18.896;-99.222;2023-02-28T07:05:38;41.72;;;7.50;;
12412;SDS011;13877;18.896;-99.222;2023-02-28T07:08:05;29.13;;;6.45;;
12412;SDS011;13877;18.896;-99.222;2023-02-28T07:10:33;28.33;;;6.55;;
12412;SDS011;13877;18.896;-99.222;2023-02-28T07:13:00;31.65;;;7.93;;
12412;SDS011;13877;18.896;-99.222;2023-02-28T07:15:27;23.23;;;6.85;;
12412;SDS011;13877;18.896;-99.222;2023-02-28T07:17:54;24.77;;;7.18;;
12412;SDS011;13877;18.896;-99.222;2023-02-28T07:20:22;22.35;;;6.30;;
12412;SDS011;13877;18.896;-99.222;2023-02-28T07:22:50;28.15;;;6.45;;
12412;SDS011;13877;18.896;-99.222;2023-02-28T07:25:26;20.60;;;5.75;;
12412;SDS011;13877;18.896;-99.222;2023-02-28T07:27:55;18.00;;;6.05;;
12412;SDS011;13877;18.896;-99.222;2023-02-28T07:30:22;25.85;;;5.38;;
12412;SDS011;13877;18.896;-99.222;2023-02-28T07:32:49;23.02;;;6.30;;
12412;SDS011;13877;18.896;-99.222;2023-02-28T07:35:16;20.40;;;5.72;;
12412;SDS011;13877;18.896;-99.222;2023-02-28T07:37:43;22.33;;;5.78;;
12412;SDS011;13877;18.896;-99.222;2023-02-28T07:40:10;19.92;;;5.38;;
12412;SDS011;13877;18.896;-99.222;2023-02-28T07:42:38;14.23;;;5.63;;
12412;SDS011;13877;18.896;-99.222;2023-02-28T07:45:08;22.00;;;5.55;;
12412;SDS011;13877;18.896;-99.222;2023-02-28T07:47:37;14.07;;;5.65;;
12412;SDS011;13877;18.896;-99.222;2023-02-28T07:50:05;28.27;;;5.70;;
12412;SDS011;13877;18.896;-99.222;2023-02-28T07:52:33;14.48;;;6.03;;
12412;SDS011;13877;18.896;-99.222;2023-02-28T07:55:01;21.92;;;5.93;;
12412;SDS011;13877;18.896;-99.222;2023-02-28T07:57:30;16.98;;;5.68;;
12412;SDS011;13877;18.896;-99.222;2023-02-28T07:59:57;24.27;;;6.22;;
12412;SDS011;13877;18.896;-99.222;2023-02-28T08:02:24;28.08;;;6.03;;
12412;SDS011;13877;18.896;-99.222;2023-02-28T08:04:51;21.85;;;5.45;;
12412;SDS011;13877;18.896;-99.222;2023-02-28T08:07:18;22.15;;;5.95;;
12412;SDS011;13877;18.896;-99.222;2023-02-28T08:09:45;16.95;;;6.30;;
12412;SDS011;13877;18.896;-99.222;2023-02-28T08:12:12;22.70;;;5.65;;
12412;SDS011;13877;18.896;-99.222;2023-02-28T08:14:40;16.05;;;6.25;;
12412;SDS011;13877;18.896;-99.222;2023-02-28T08:17:08;25.50;;;5.45;;
12412;SDS011;13877;18.896;-99.222;2023-02-28T08:19:36;37.85;;;5.72;;
12412;SDS011;13877;18.896;-99.222;2023-02-28T08:22:03;17.63;;;6.55;;
12412;SDS011;13877;18.896;-99.222;2023-02-28T08:24:30;29.20;;;5.68;;
12412;SDS011;13877;18.896;-99.222;2023-02-28T08:26:57;20.17;;;6.13;;
12412;SDS011;13877;18.896;-99.222;2023-02-28T08:29:24;26.50;;;5.90;;
12412;SDS011;13877;18.896;-99.222;2023-02-28T08:31:51;26.67;;;6.35;;
12412;SDS011;13877;18.896;-99.222;2023-02-28T08:34:18;32.67;;;5.93;;
12412;SDS011;13877;18.896;-99.222;2023-02-28T08:36:45;25.77;;;6.30;;
12412;SDS011;13877;18.896;-99.222;2023-02-28T08:39:12;19.25;;;5.70;;
12412;SDS011;13877;18.896;-99.222;2023-02-28T08:41:39;24.42;;;5.47;;
12412;SDS011;13877;18.896;-99.222;2023-02-28T08:44:07;37.05;;;7.05;;
12412;SDS011;13877;18.896;-99.222;2023-02-28T08:46:34;24.08;;;7.13;;
12412;SDS011;13877;18.896;-99.222;2023-02-28T08:49:01;18.60;;;6.32;;
12412;SDS011;13877;18.896;-99.222;2023-02-28T08:51:29;27.02;;;7.03;;
12412;SDS011;13877;18.896;-99.222;2023-02-28T08:53:57;17.65;;;6.32;;
12412;SDS011;13877;18.896;-99.222;2023-02-28T08:56:26;19.17;;;6.15;;
12412;SDS011;13877;18.896;-99.222;2023-02-28T08:58:54;19.05;;;6.47;;
12412;SDS011;13877;18.896;-99.222;2023-02-28T09:01:26;14.80;;;6.05;;
12412;SDS011;13877;18.896;-99.222;2023-02-28T09:03:55;22.75;;;6.88;;
12412;SDS011;13877;18.896;-99.222;2023-02-28T09:06:23;17.33;;;6.13;;
12412;SDS011;13877;18.896;-99.222;2023-02-28T09:08:51;22.48;;;6.50;;
12412;SDS011;13877;18.896;-99.222;2023-02-28T09:11:18;18.38;;;5.68;;
12412;SDS011;13877;18.896;-99.222;2023-02-28T09:13:46;19.85;;;5.78;;
12412;SDS011;13877;18.896;-99.222;2023-02-28T09:16:13;28.17;;;6.20;;
12412;SDS011;13877;18.896;-99.222;2023-02-28T09:18:42;17.77;;;5.05;;
12412;SDS011;13877;18.896;-99.222;2023-02-28T09:21:11;16.77;;;5.63;;
12412;SDS011;13877;18.896;-99.222;2023-02-28T09:23:41;17.23;;;5.72;;
12412;SDS011;13877;18.896;-99.222;2023-02-28T09:26:12;21.65;;;5.38;;
12412;SDS011;13877;18.896;-99.222;2023-02-28T09:28:45;24.13;;;5.43;;
12412;SDS011;13877;18.896;-99.222;2023-02-28T09:31:17;26.63;;;5.90;;
12412;SDS011;13877;18.896;-99.222;2023-02-28T09:33:48;28.02;;;6.32;;
12412;SDS011;13877;18.896;-99.222;2023-02-28T09:36:17;30.80;;;6.15;;
12412;SDS011;13877;18.896;-99.222;2023-02-28T09:38:44;13.10;;;5.28;;
12412;SDS011;13877;18.896;-99.222;2023-02-28T09:41:16;19.23;;;5.50;;
12412;SDS011;13877;18.896;-99.222;2023-02-28T09:43:47;16.67;;;5.90;;
12412;SDS011;13877;18.896;-99.222;2023-02-28T09:49:06;14.52;;;5.00;;
12412;SDS011;13877;18.896;-99.222;2023-02-28T09:54:30;19.25;;;5.82;;
12412;SDS011;13877;18.896;-99.222;2023-02-28T09:57:00;21.17;;;5.38;;
12412;SDS011;13877;18.896;-99.222;2023-02-28T10:02:19;22.63;;;5.55;;
12412;SDS011;13877;18.896;-99.222;2023-02-28T10:10:19;14.55;;;5.28;;
12412;SDS011;13877;18.896;-99.222;2023-02-28T10:12:59;21.70;;;6.07;;
12412;SDS011;13877;18.896;-99.222;2023-02-28T10:15:31;16.17;;;5.63;;
12412;SDS011;13877;18.896;-99.222;2023-02-28T10:18:04;13.15;;;5.60;;
12412;SDS011;13877;18.896;-99.222;2023-02-28T10:20:37;22.42;;;5.72;;
12412;SDS011;13877;18.896;-99.222;2023-02-28T10:26:09;24.60;;;5.97;;
12412;SDS011;13877;18.896;-99.222;2023-02-28T10:28:39;18.90;;;6.85;;
12412;SDS011;13877;18.896;-99.222;2023-02-28T10:31:08;18.15;;;5.45;;
12412;SDS011;13877;18.896;-99.222;2023-02-28T10:33:43;20.95;;;5.82;;
12412;SDS011;13877;18.896;-99.222;2023-02-28T10:36:15;26.17;;;5.25;;
12412;SDS011;13877;18.896;-99.222;2023-02-28T10:38:44;15.20;;;5.60;;
12412;SDS011;13877;18.896;-99.222;2023-02-28T10:44:15;19.98;;;5.95;;
12412;SDS011;13877;18.896;-99.222;2023-02-28T10:46:48;24.23;;;6.35;;
12412;SDS011;13877;18.896;-99.222;2023-02-28T10:49:23;21.85;;;6.15;;
12412;SDS011;13877;18.896;-99.222;2023-02-28T10:51:57;14.10;;;5.38;;
12412;SDS011;13877;18.896;-99.222;2023-02-28T10:54:30;13.05;;;6.65;;
12412;SDS011;13877;18.896;-99.222;2023-02-28T10:57:17;15.75;;;5.78;;
12412;SDS011;13877;18.896;-99.222;2023-02-28T10:59:51;32.55;;;5.80;;
12412;SDS011;13877;18.896;-99.222;2023-02-28T11:02:31;13.63;;;5.50;;
12412;SDS011;13877;18.896;-99.222;2023-02-28T11:05:00;21.95;;;5.90;;
12412;SDS011;13877;18.896;-99.222;2023-02-28T11:07:27;24.20;;;5.95;;
12412;SDS011;13877;18.896;-99.222;2023-02-28T11:09:55;19.27;;;6.15;;
12412;SDS011;13877;18.896;-99.222;2023-02-28T11:12:25;17.77;;;6.95;;
12412;SDS011;13877;18.896;-99.222;2023-02-28T11:14:57;12.18;;;6.32;;
12412;SDS011;13877;18.896;-99.222;2023-02-28T11:17:27;21.55;;;5.93;;
12412;SDS011;13877;18.896;-99.222;2023-02-28T11:19:58;15.00;;;5.97;;
12412;SDS011;13877;18.896;-99.222;2023-02-28T11:22:32;14.73;;;5.15;;
12412;SDS011;13877;18.896;-99.222;2023-02-28T11:25:09;15.07;;;6.63;;
12412;SDS011;13877;18.896;-99.222;2023-02-28T11:27:48;13.52;;;6.00;;
12412;SDS011;13877;18.896;-99.222;2023-02-28T11:30:30;19.55;;;5.78;;
12412;SDS011;13877;18.896;-99.222;2023-02-28T11:33:25;14.43;;;5.72;;
12412;SDS011;13877;18.896;-99.222;2023-02-28T11:36:02;11.50;;;5.63;;
12412;SDS011;13877;18.896;-99.222;2023-02-28T11:38:35;11.35;;;5.50;;
12412;SDS011;13877;18.896;-99.222;2023-02-28T11:44:04;16.50;;;4.93;;
12412;SDS011;13877;18.896;-99.222;2023-02-28T11:52:22;17.40;;;5.05;;
12412;SDS011;13877;18.896;-99.222;2023-02-28T11:55:16;14.52;;;5.38;;
12412;SDS011;13877;18.896;-99.222;2023-02-28T11:58:00;13.60;;;5.80;;
12412;SDS011;13877;18.896;-99.222;2023-02-28T12:14:22;24.42;;;6.85;;
12412;SDS011;13877;18.896;-99.222;2023-02-28T12:17:04;23.02;;;6.88;;
12412;SDS011;13877;18.896;-99.222;2023-02-28T12:19:52;28.85;;;6.68;;
12412;SDS011;13877;18.896;-99.222;2023-02-28T12:27:53;17.88;;;6.68;;
12412;SDS011;13877;18.896;-99.222;2023-02-28T12:30:31;33.35;;;7.20;;
12412;SDS011;13877;18.896;-99.222;2023-02-28T12:33:10;21.48;;;7.25;;
12412;SDS011;13877;18.896;-99.222;2023-02-28T12:35:48;19.00;;;7.85;;
12412;SDS011;13877;18.896;-99.222;2023-02-28T12:38:28;24.08;;;7.75;;
12412;SDS011;13877;18.896;-99.222;2023-02-28T12:41:13;18.17;;;7.40;;
12412;SDS011;13877;18.896;-99.222;2023-02-28T12:44:01;22.87;;;8.07;;
12412;SDS011;13877;18.896;-99.222;2023-02-28T12:46:53;18.20;;;7.20;;
12412;SDS011;13877;18.896;-99.222;2023-02-28T12:49:27;26.38;;;7.43;;
12412;SDS011;13877;18.896;-99.222;2023-02-28T12:52:00;21.20;;;8.00;;
12412;SDS011;13877;18.896;-99.222;2023-02-28T12:54:38;29.30;;;7.35;;
12412;SDS011;13877;18.896;-99.222;2023-02-28T12:57:19;20.98;;;6.70;;
12412;SDS011;13877;18.896;-99.222;2023-02-28T12:59:51;25.40;;;6.80;;
12412;SDS011;13877;18.896;-99.222;2023-02-28T13:05:23;22.38;;;6.65;;
12412;SDS011;13877;18.896;-99.222;2023-02-28T13:11:07;18.83;;;7.15;;
12412;SDS011;13877;18.896;-99.222;2023-02-28T13:13:49;30.23;;;6.85;;
12412;SDS011;13877;18.896;-99.222;2023-02-28T13:16:48;31.45;;;7.43;;
12412;SDS011;13877;18.896;-99.222;2023-02-28T13:19:20;22.08;;;8.48;;
12412;SDS011;13877;18.896;-99.222;2023-02-28T13:21:50;36.72;;;8.05;;
12412;SDS011;13877;18.896;-99.222;2023-02-28T13:29:43;33.00;;;7.95;;
12412;SDS011;13877;18.896;-99.222;2023-02-28T13:35:08;28.25;;;7.30;;
12412;SDS011;13877;18.896;-99.222;2023-02-28T13:37:43;27.75;;;7.90;;
12412;SDS011;13877;18.896;-99.222;2023-02-28T13:43:06;20.77;;;6.78;;
12412;SDS011;13877;18.896;-99.222;2023-02-28T13:45:35;37.67;;;8.20;;
12412;SDS011;13877;18.896;-99.222;2023-02-28T13:48:25;28.38;;;7.40;;
12412;SDS011;13877;18.896;-99.222;2023-02-28T13:50:53;33.15;;;7.57;;
12412;SDS011;13877;18.896;-99.222;2023-02-28T13:56:26;25.00;;;6.57;;
12412;SDS011;13877;18.896;-99.222;2023-02-28T13:59:26;28.95;;;7.18;;
12412;SDS011;13877;18.896;-99.222;2023-02-28T14:02:27;27.67;;;6.82;;
12412;SDS011;13877;18.896;-99.222;2023-02-28T14:05:06;27.27;;;6.22;;
12412;SDS011;13877;18.896;-99.222;2023-02-28T14:07:48;15.95;;;5.40;;
12412;SDS011;13877;18.896;-99.222;2023-02-28T14:10:28;19.27;;;5.80;;
12412;SDS011;13877;18.896;-99.222;2023-02-28T14:12:59;19.33;;;5.70;;
12412;SDS011;13877;18.896;-99.222;2023-02-28T14:18:25;20.50;;;5.57;;
12412;SDS011;13877;18.896;-99.222;2023-02-28T14:23:46;13.18;;;4.85;;
12412;SDS011;13877;18.896;-99.222;2023-02-28T14:29:30;14.48;;;4.47;;
12412;SDS011;13877;18.896;-99.222;2023-02-28T14:37:22;19.65;;;5.60;;
12412;SDS011;13877;18.896;-99.222;2023-02-28T14:39:54;21.38;;;5.65;;
12412;SDS011;13877;18.896;-99.222;2023-02-28T14:42:39;21.90;;;5.75;;
12412;SDS011;13877;18.896;-99.222;2023-02-28T14:45:21;21.65;;;6.18;;
12412;SDS011;13877;18.896;-99.222;2023-02-28T14:47:49;21.60;;;5.78;;
12412;SDS011;13877;18.896;-99.222;2023-02-28T14:50:22;15.43;;;5.10;;
12412;SDS011;13877;18.896;-99.222;2023-02-28T14:53:02;22.95;;;5.25;;
12412;SDS011;13877;18.896;-99.222;2023-02-28T14:55:34;16.15;;;5.03;;
12412;SDS011;13877;18.896;-99.222;2023-02-28T14:58:03;22.30;;;5.55;;
12412;SDS011;13877;18.896;-99.222;2023-02-28T15:00:33;14.30;;;4.38;;
12412;SDS011;13877;18.896;-99.222;2023-02-28T15:06:00;23.25;;;5.65;;
12412;SDS011;13877;18.896;-99.222;2023-02-28T15:11:02;16.23;;;5.40;;
12412;SDS011;13877;18.896;-99.222;2023-02-28T15:13:51;17.38;;;5.70;;
12412;SDS011;13877;18.896;-99.222;2023-02-28T15:16:22;26.83;;;5.03;;
12412;SDS011;13877;18.896;-99.222;2023-02-28T15:18:53;21.08;;;5.97;;
12412;SDS011;13877;18.896;-99.222;2023-02-28T15:21:41;23.30;;;6.88;;
12412;SDS011;13877;18.896;-99.222;2023-02-28T15:26:56;32.97;;;6.82;;
12412;SDS011;13877;18.896;-99.222;2023-02-28T15:29:26;31.33;;;6.97;;
12412;SDS011;13877;18.896;-99.222;2023-02-28T15:32:06;23.05;;;6.43;;
12412;SDS011;13877;18.896;-99.222;2023-02-28T15:34:46;32.00;;;6.90;;
12412;SDS011;13877;18.896;-99.222;2023-02-28T15:38:00;21.77;;;6.82;;
12412;SDS011;13877;18.896;-99.222;2023-02-28T15:40:22;16.58;;;6.28;;
12412;SDS011;13877;18.896;-99.222;2023-02-28T15:43:00;31.77;;;6.75;;
12412;SDS011;13877;18.896;-99.222;2023-02-28T15:45:37;18.58;;;5.97;;
12412;SDS011;13877;18.896;-99.222;2023-02-28T15:50:54;21.15;;;5.43;;
12412;SDS011;13877;18.896;-99.222;2023-02-28T15:53:28;16.33;;;6.65;;
12412;SDS011;13877;18.896;-99.222;2023-02-28T15:56:05;23.67;;;6.78;;
12412;SDS011;13877;18.896;-99.222;2023-02-28T15:58:42;11.13;;;5.35;;
12412;SDS011;13877;18.896;-99.222;2023-02-28T16:01:17;11.70;;;5.47;;
12412;SDS011;13877;18.896;-99.222;2023-02-28T16:03:50;14.00;;;6.07;;
12412;SDS011;13877;18.896;-99.222;2023-02-28T16:06:23;24.38;;;5.93;;
12412;SDS011;13877;18.896;-99.222;2023-02-28T16:09:03;26.65;;;5.90;;
12412;SDS011;13877;18.896;-99.222;2023-02-28T16:11:34;18.25;;;6.03;;
12412;SDS011;13877;18.896;-99.222;2023-02-28T16:14:04;23.50;;;6.47;;
12412;SDS011;13877;18.896;-99.222;2023-02-28T16:16:32;18.35;;;6.63;;
12412;SDS011;13877;18.896;-99.222;2023-02-28T16:18:59;22.67;;;6.93;;
12412;SDS011;13877;18.896;-99.222;2023-02-28T16:21:27;19.27;;;6.72;;
12412;SDS011;13877;18.896;-99.222;2023-02-28T16:23:54;26.00;;;6.25;;
12412;SDS011;13877;18.896;-99.222;2023-02-28T16:26:22;23.77;;;6.68;;
12412;SDS011;13877;18.896;-99.222;2023-02-28T16:28:52;17.70;;;6.78;;
12412;SDS011;13877;18.896;-99.222;2023-02-28T16:31:20;24.00;;;7.50;;
12412;SDS011;13877;18.896;-99.222;2023-02-28T16:33:48;25.90;;;6.65;;
12412;SDS011;13877;18.896;-99.222;2023-02-28T16:36:16;23.25;;;7.30;;
12412;SDS011;13877;18.896;-99.222;2023-02-28T16:38:46;18.60;;;7.28;;
12412;SDS011;13877;18.896;-99.222;2023-02-28T16:41:16;19.50;;;6.85;;
12412;SDS011;13877;18.896;-99.222;2023-02-28T16:43:48;14.20;;;6.60;;
12412;SDS011;13877;18.896;-99.222;2023-02-28T16:46:19;14.52;;;6.75;;
12412;SDS011;13877;18.896;-99.222;2023-02-28T16:48:47;35.17;;;6.50;;
12412;SDS011;13877;18.896;-99.222;2023-02-28T16:51:19;18.77;;;6.97;;
12412;SDS011;13877;18.896;-99.222;2023-02-28T16:53:46;21.48;;;6.68;;
12412;SDS011;13877;18.896;-99.222;2023-02-28T16:56:16;30.40;;;9.63;;
12412;SDS011;13877;18.896;-99.222;2023-02-28T16:58:49;18.30;;;9.77;;